createdAt,value
2023-04-14T00:01:00.374Z,54.94
2023-04-14T00:03:27.370Z,55.04
2023-04-14T00:05:54.452Z,55.28
2023-04-14T00:08:21.214Z,55.23
2023-04-14T00:10:47.980Z,55.25
2023-04-14T00:13:14.895Z,55.42
2023-04-14T00:15:42.509Z,55.32
2023-04-14T00:18:09.321Z,55.14
2023-04-14T00:20:36.177Z,55.22
2023-04-14T00:23:03.046Z,55.49
2023-04-14T00:25:29.776Z,55.48
2023-04-14T00:27:56.611Z,55.69
2023-04-14T00:30:23.353Z,55.53
2023-04-14T00:32:50.129Z,55.67
2023-04-14T00:35:16.954Z,55.87
2023-04-14T00:37:43.779Z,55.76
2023-04-14T00:40:13.322Z,55.66
2023-04-14T00:42:44.464Z,55.62
2023-04-14T00:45:11.981Z,55.81
2023-04-14T00:47:39.544Z,55.73
2023-04-14T00:50:06.975Z,55.82
2023-04-14T00:52:33.706Z,55.55
2023-04-14T00:55:00.981Z,55.67
2023-04-14T00:57:27.884Z,55.58
2023-04-14T00:59:54.782Z,55.78
2023-04-14T01:02:22.311Z,55.54
2023-04-14T01:04:54.186Z,55.40
2023-04-14T01:07:21.791Z,55.47
2023-04-14T01:09:48.545Z,55.54
2023-04-14T01:12:28.444Z,55.62
2023-04-14T01:15:20.748Z,56.14
2023-04-14T01:18:11.420Z,55.68
2023-04-14T01:20:39.647Z,55.94
2023-04-14T01:23:13.701Z,55.82
2023-04-14T01:25:49.519Z,55.91
2023-04-14T01:28:22.554Z,55.76
2023-04-14T01:31:26.602Z,55.79
2023-04-14T01:34:20.932Z,55.72
2023-04-14T01:37:15.214Z,55.42
2023-04-14T01:39:43.091Z,55.50
2023-04-14T01:42:11.923Z,55.41
2023-04-14T01:44:39.515Z,55.35
2023-04-14T01:47:08.527Z,55.45
2023-04-14T01:49:36.649Z,55.29
2023-04-14T01:52:04.223Z,55.79
2023-04-14T01:54:32.166Z,55.92
2023-04-14T01:56:58.902Z,56.09
2023-04-14T01:59:25.816Z,56.09
2023-04-14T02:01:52.786Z,56.14
2023-04-14T02:04:20.747Z,55.94
2023-04-14T02:06:47.609Z,55.91
2023-04-14T02:09:14.696Z,56.11
2023-04-14T02:11:42.470Z,56.12
2023-04-14T02:14:09.517Z,56.32
2023-04-14T02:16:36.395Z,56.35
2023-04-14T02:19:04.196Z,56.41
2023-04-14T02:21:31.283Z,56.56
2023-04-14T02:23:58.075Z,56.66
2023-04-14T02:26:26.715Z,57.03
2023-04-14T02:28:58.200Z,56.84
2023-04-14T02:31:26.047Z,57.06
2023-04-14T02:33:55.050Z,57.32
2023-04-14T02:36:24.509Z,57.74
2023-04-14T02:39:18.294Z,57.98
2023-04-14T02:41:45.850Z,58.09
2023-04-14T02:44:28.797Z,57.98
2023-04-14T02:47:07.012Z,57.65
2023-04-14T02:49:36.469Z,58.04
2023-04-14T02:52:06.740Z,57.92
2023-04-14T02:54:38.035Z,57.91
2023-04-14T02:57:04.776Z,58.13
2023-04-14T02:59:32.416Z,58.34
2023-04-14T03:02:06.498Z,58.18
2023-04-14T03:04:34.681Z,58.24
2023-04-14T03:07:01.762Z,57.95
2023-04-14T03:09:29.004Z,58.13
2023-04-14T03:11:55.773Z,58.03
2023-04-14T03:14:23.232Z,58.33
2023-04-14T03:16:53.528Z,58.09
2023-04-14T03:19:23.789Z,57.93
2023-04-14T03:21:51.238Z,58.13
2023-04-14T03:24:30.887Z,57.95
2023-04-14T03:26:58.760Z,57.97
2023-04-14T03:29:34.501Z,57.82
2023-04-14T03:32:02.246Z,57.98
2023-04-14T03:34:29.882Z,57.96
2023-04-14T03:36:56.725Z,57.79
2023-04-14T03:39:28.484Z,57.92
2023-04-14T03:41:56.182Z,57.88
2023-04-14T03:44:23.171Z,57.84
2023-04-14T03:46:50.097Z,57.66
2023-04-14T03:49:17.494Z,57.54
2023-04-14T03:51:44.544Z,57.70
2023-04-14T03:54:11.874Z,57.43
2023-04-14T03:56:41.312Z,57.63
2023-04-14T03:59:11.602Z,57.37
2023-04-14T04:01:39.117Z,57.36
2023-04-14T04:04:06.318Z,57.76
2023-04-14T04:06:33.836Z,57.59
2023-04-14T04:09:01.398Z,57.76
2023-04-14T04:11:29.201Z,57.58
2023-04-14T04:13:56.162Z,57.73
2023-04-14T04:16:23.119Z,57.73
2023-04-14T04:18:49.996Z,57.40
2023-04-14T04:21:18.198Z,57.53
2023-04-14T04:23:52.796Z,57.88
2023-04-14T04:26:19.669Z,57.98
2023-04-14T04:28:46.920Z,57.73
2023-04-14T04:31:13.761Z,57.90
2023-04-14T04:33:40.539Z,57.71
2023-04-14T04:36:07.579Z,58.18
2023-04-14T04:38:34.410Z,58.14
2023-04-14T04:41:01.248Z,58.05
2023-04-14T04:43:28.178Z,58.48
2023-04-14T04:46:25.898Z,58.19
2023-04-14T04:48:53.215Z,57.98
2023-04-14T04:51:19.965Z,58.56
2023-04-14T04:53:46.854Z,58.71
2023-04-14T04:56:13.784Z,58.35
2023-04-14T04:58:40.728Z,58.68
2023-04-14T05:01:11.239Z,58.56
2023-04-14T05:03:38.379Z,58.49
2023-04-14T05:06:06.923Z,58.87
2023-04-14T05:08:33.706Z,59.10
2023-04-14T05:11:01.493Z,58.81
2023-04-14T05:13:28.241Z,59.08
2023-04-14T05:16:08.673Z,59.53
2023-04-14T05:18:35.721Z,59.24
2023-04-14T05:21:09.715Z,59.49
2023-04-14T05:23:37.594Z,59.58
2023-04-14T05:26:26.974Z,59.68
2023-04-14T05:28:51.921Z,59.50
2023-04-14T05:31:18.839Z,59.65
2023-04-14T05:33:45.837Z,59.56
2023-04-14T05:36:12.990Z,59.58
2023-04-14T05:38:43.140Z,59.75
2023-04-14T05:41:10.325Z,59.65
2023-04-14T05:43:37.471Z,59.64
2023-04-14T05:46:04.935Z,60.01
2023-04-14T05:48:33.574Z,60.14
2023-04-14T05:51:00.764Z,60.04
2023-04-14T05:53:28.001Z,60.38
2023-04-14T05:55:54.830Z,60.35
2023-04-14T05:58:21.785Z,60.57
2023-04-14T06:00:48.607Z,60.66
2023-04-14T06:03:16.909Z,60.74
2023-04-14T06:05:44.335Z,60.72
2023-04-14T06:08:11.306Z,61.06
2023-04-14T06:10:38.099Z,60.98
2023-04-14T06:13:04.935Z,61.04
2023-04-14T06:15:31.935Z,61.02
2023-04-14T06:17:58.964Z,61.31
2023-04-14T06:20:25.982Z,61.34
2023-04-14T06:22:52.786Z,61.53
2023-04-14T06:25:19.908Z,61.31
2023-04-14T06:27:46.628Z,61.34
2023-04-14T06:30:15.493Z,61.03
2023-04-14T06:32:42.531Z,61.44
2023-04-14T06:35:16.468Z,61.49
2023-04-14T06:37:50.734Z,61.50
2023-04-14T06:40:17.524Z,62.59
2023-04-14T06:42:44.318Z,64.53
2023-04-14T06:45:11.613Z,66.50
2023-04-14T06:47:38.570Z,68.23
2023-04-14T06:50:05.816Z,69.78
2023-04-14T06:52:32.805Z,70.94
2023-04-14T06:54:59.738Z,71.91
2023-04-14T06:57:26.658Z,73.43
2023-04-14T06:59:53.581Z,74.22
2023-04-14T07:02:20.520Z,75.33
2023-04-14T07:04:47.427Z,75.94
2023-04-14T07:07:14.952Z,76.49
2023-04-14T07:09:44.623Z,77.15
2023-04-14T07:12:14.863Z,77.77
2023-04-14T07:14:41.795Z,78.36
2023-04-14T07:17:09.102Z,78.64
2023-04-14T07:19:35.855Z,79.16
2023-04-14T07:22:03.873Z,79.66
2023-04-14T07:24:30.598Z,80.01
2023-04-14T07:26:57.333Z,80.37
2023-04-14T07:29:24.283Z,80.46
2023-04-14T07:31:51.110Z,80.72
2023-04-14T07:34:18.526Z,80.69
2023-04-14T07:36:45.949Z,81.48
2023-04-14T07:39:12.820Z,82.07
2023-04-14T07:41:41.438Z,82.48
2023-04-14T07:44:08.296Z,83.04
2023-04-14T07:46:35.093Z,83.25
2023-04-14T07:49:02.466Z,83.65
2023-04-14T07:51:29.331Z,83.95
2023-04-14T07:53:56.257Z,84.24
2023-04-14T07:56:23.188Z,84.64
2023-04-14T07:58:50.143Z,84.69
2023-04-14T08:01:17.212Z,85.25
2023-04-14T08:03:45.551Z,85.46
2023-04-14T08:06:12.992Z,85.40
2023-04-14T08:08:40.321Z,85.76
2023-04-14T08:11:07.188Z,85.81
2023-04-14T08:13:34.171Z,86.24
2023-04-14T08:16:01.074Z,86.44
2023-04-14T08:18:28.487Z,86.63
2023-04-14T08:20:55.637Z,87.10
2023-04-14T08:23:23.022Z,87.17
2023-04-14T08:25:49.898Z,87.46
2023-04-14T08:28:17.437Z,87.86
2023-04-14T08:30:44.245Z,87.86
2023-04-14T08:33:11.297Z,88.33
2023-04-14T08:35:42.442Z,88.30
2023-04-14T08:38:11.997Z,88.58
2023-04-14T08:40:40.321Z,88.69
2023-04-14T08:43:07.399Z,88.86
2023-04-14T08:45:34.627Z,88.89
2023-04-14T08:48:02.848Z,88.98
2023-04-14T08:50:37.959Z,89.42
2023-04-14T08:53:06.638Z,89.63
2023-04-14T08:55:33.811Z,89.74
2023-04-14T08:58:01.515Z,90.32
2023-04-14T09:00:28.387Z,90.32
2023-04-14T09:02:55.625Z,90.62
2023-04-14T09:05:22.575Z,90.62
2023-04-14T09:07:49.934Z,90.74
2023-04-14T09:10:16.813Z,90.78
2023-04-14T09:12:43.988Z,91.01
2023-04-14T09:15:12.124Z,91.40
2023-04-14T09:17:38.882Z,91.45
2023-04-14T09:20:38.524Z,91.76
2023-04-14T09:22:53.421Z,91.92
2023-04-14T09:25:21.143Z,92.07
2023-04-14T09:27:49.399Z,92.13
2023-04-14T09:30:17.994Z,92.15
2023-04-14T09:32:47.958Z,92.83
2023-04-14T09:35:14.898Z,93.13
2023-04-14T09:37:45.393Z,93.64
2023-04-14T09:40:28.032Z,94.03
2023-04-14T09:42:56.510Z,94.81
2023-04-14T09:45:23.342Z,95.20
2023-04-14T09:48:06.350Z,95.40
2023-04-14T09:50:33.757Z,95.87
2023-04-14T09:53:00.493Z,95.96
2023-04-14T09:55:27.578Z,96.46
2023-04-14T09:57:54.373Z,96.80
2023-04-14T10:00:22.471Z,97.22
2023-04-14T10:02:56.037Z,97.65
2023-04-14T10:05:27.329Z,98.15
2023-04-14T10:07:54.464Z,98.29
2023-04-14T10:10:21.484Z,98.61
2023-04-14T10:12:48.287Z,98.64
2023-04-14T10:15:15.733Z,98.84
2023-04-14T10:17:42.994Z,98.82
2023-04-14T10:20:10.502Z,99.12
2023-04-14T10:22:39.082Z,99.70
2023-04-14T10:25:08.230Z,100.00
2023-04-14T10:27:35.170Z,100.00
2023-04-14T10:30:02.337Z,100.00
2023-04-14T10:32:32.008Z,100.00
2023-04-14T10:35:05.661Z,100.00
2023-04-14T10:37:35.350Z,100.00
2023-04-14T10:40:04.226Z,100.00
2023-04-14T10:42:52.282Z,100.00
2023-04-14T10:45:19.076Z,100.00
2023-04-14T10:47:45.926Z,100.00
2023-04-14T10:50:14.276Z,100.00
2023-04-14T10:52:58.927Z,100.00
2023-04-14T10:55:28.536Z,100.00
2023-04-14T10:58:06.440Z,100.00
2023-04-14T11:00:37.798Z,100.00
2023-04-14T11:03:08.015Z,100.00
2023-04-14T11:05:35.783Z,100.00
2023-04-14T11:08:15.822Z,100.00
2023-04-14T11:10:48.269Z,100.00
2023-04-14T11:13:17.567Z,100.00
2023-04-14T11:15:51.952Z,100.00
2023-04-14T11:18:21.642Z,100.00
2023-04-14T11:20:49.151Z,100.00
2023-04-14T11:23:19.344Z,100.00
2023-04-14T11:25:46.301Z,100.00
2023-04-14T11:28:13.246Z,100.00
2023-04-14T11:30:40.892Z,100.00
2023-04-14T11:33:07.929Z,100.00
2023-04-14T11:35:34.848Z,100.00
2023-04-14T11:38:01.968Z,100.00
2023-04-14T11:40:29.010Z,100.00
2023-04-14T11:42:59.270Z,100.00
2023-04-14T11:45:29.737Z,100.00
2023-04-14T11:48:04.463Z,100.00
2023-04-14T11:50:33.103Z,100.00
2023-04-14T11:53:00.461Z,100.00
2023-04-14T11:55:27.656Z,100.00
2023-04-14T11:57:58.395Z,100.00
2023-04-14T12:00:25.463Z,100.00
2023-04-14T12:02:52.581Z,100.00
2023-04-14T12:05:21.761Z,100.00
2023-04-14T12:07:49.556Z,100.00
2023-04-14T12:10:16.525Z,100.00
2023-04-14T12:12:43.603Z,100.00
2023-04-14T12:15:10.870Z,100.00
2023-04-14T12:17:38.693Z,100.00
2023-04-14T12:20:06.096Z,100.00
2023-04-14T12:22:32.862Z,100.00
2023-04-14T12:24:59.690Z,100.00
2023-04-14T12:27:27.744Z,100.00
2023-04-14T12:29:54.653Z,100.00
2023-04-14T12:32:22.827Z,100.00
2023-04-14T12:35:01.483Z,100.00
2023-04-14T12:37:28.448Z,100.00
2023-04-14T12:40:00.626Z,100.00
2023-04-14T12:42:28.260Z,100.00
2023-04-14T12:44:56.293Z,100.00
2023-04-14T12:47:32.523Z,100.00
2023-04-14T12:50:00.378Z,100.00
2023-04-14T12:52:40.269Z,100.00
2023-04-14T12:55:07.958Z,100.00
2023-04-14T12:57:35.202Z,100.00
2023-04-14T13:00:02.302Z,100.00
2023-04-14T13:02:30.289Z,100.00
2023-04-14T13:04:57.375Z,100.00
2023-04-14T13:07:24.238Z,100.00
2023-04-14T13:09:52.028Z,100.00
2023-04-14T13:12:18.878Z,100.00
2023-04-14T13:14:46.919Z,100.00
2023-04-14T13:17:13.739Z,100.00
2023-04-14T13:19:41.596Z,100.00
2023-04-14T13:22:08.550Z,100.00
2023-04-14T13:24:36.321Z,98.89
2023-04-14T13:27:03.250Z,98.53
2023-04-14T13:29:32.206Z,98.13
2023-04-14T13:31:59.193Z,98.69
2023-04-14T13:34:27.674Z,98.21
2023-04-14T13:36:55.194Z,98.20
2023-04-14T13:39:22.841Z,98.81
2023-04-14T13:41:49.791Z,98.87
2023-04-14T13:44:17.272Z,99.51
2023-04-14T13:46:45.721Z,99.95
2023-04-14T13:49:12.752Z,100.00
2023-04-14T13:51:40.005Z,100.00
2023-04-14T13:54:07.105Z,100.00
2023-04-14T13:56:33.902Z,100.00
2023-04-14T13:59:02.343Z,100.00
2023-04-14T14:01:29.302Z,100.00
2023-04-14T14:03:56.570Z,100.00
2023-04-14T14:06:23.666Z,100.00
2023-04-14T14:09:05.764Z,100.00
2023-04-14T14:11:33.474Z,100.00
2023-04-14T14:14:00.626Z,100.00
2023-04-14T14:18:57.471Z,100.00
2023-04-14T14:21:24.243Z,100.00
2023-04-14T14:23:51.116Z,100.00
2023-04-14T14:26:17.961Z,100.00
2023-04-14T14:28:45.612Z,100.00
2023-04-14T14:31:12.388Z,100.00
2023-04-14T14:33:39.437Z,100.00
2023-04-14T14:36:06.371Z,100.00
2023-04-14T14:38:33.183Z,100.00
2023-04-14T14:41:00.157Z,100.00
2023-04-14T14:43:27.141Z,100.00
2023-04-14T14:45:54.021Z,100.00
2023-04-14T14:48:21.175Z,100.00
2023-04-14T14:50:47.886Z,100.00
2023-04-14T14:53:14.582Z,100.00
2023-04-14T14:55:41.619Z,100.00
2023-04-14T14:58:08.565Z,100.00
2023-04-14T15:00:35.907Z,100.00
2023-04-14T15:03:02.895Z,100.00
2023-04-14T15:05:30.264Z,100.00
2023-04-14T15:07:57.017Z,100.00
2023-04-14T15:10:25.730Z,100.00
2023-04-14T15:12:53.656Z,100.00
2023-04-14T15:15:20.422Z,100.00
2023-04-14T15:17:47.413Z,100.00
2023-04-14T15:20:14.528Z,100.00
2023-04-14T15:22:41.334Z,100.00
2023-04-14T15:25:09.352Z,100.00
2023-04-14T15:27:36.569Z,100.00
2023-04-14T15:30:03.628Z,100.00
2023-04-14T15:32:30.539Z,100.00
2023-04-14T15:34:57.593Z,100.00
2023-04-14T15:37:25.396Z,100.00
2023-04-14T15:39:52.631Z,100.00
2023-04-14T15:42:19.568Z,100.00
2023-04-14T15:44:46.471Z,100.00
2023-04-14T15:47:13.396Z,100.00
2023-04-14T15:49:40.123Z,100.00
2023-04-14T15:52:06.926Z,100.00
2023-04-14T15:54:34.286Z,100.00
2023-04-14T15:57:02.355Z,100.00
2023-04-14T15:59:29.363Z,100.00
2023-04-14T16:01:56.444Z,100.00
2023-04-14T16:04:24.175Z,100.00
2023-04-14T16:06:51.446Z,100.00
2023-04-14T16:09:18.398Z,100.00
2023-04-14T16:11:45.320Z,100.00
2023-04-14T16:14:13.229Z,100.00
2023-04-14T16:16:40.312Z,100.00
2023-04-14T16:19:07.085Z,100.00
2023-04-14T16:21:33.923Z,100.00
2023-04-14T16:24:01.309Z,100.00
2023-04-14T16:26:28.963Z,100.00
2023-04-14T16:28:55.691Z,100.00
2023-04-14T16:31:23.661Z,100.00
2023-04-14T16:33:50.514Z,100.00
2023-04-14T16:36:17.474Z,100.00
2023-04-14T16:38:44.343Z,100.00
2023-04-14T16:41:11.651Z,100.00
2023-04-14T16:43:38.910Z,100.00
2023-04-14T16:46:07.215Z,100.00
2023-04-14T16:48:35.250Z,100.00
2023-04-14T16:51:09.388Z,100.00
2023-04-14T16:53:37.117Z,100.00
2023-04-14T16:56:07.688Z,100.00
2023-04-14T16:58:35.276Z,100.00
2023-04-14T17:01:02.392Z,100.00
2023-04-14T17:03:29.348Z,100.00
2023-04-14T17:05:56.721Z,100.00
2023-04-14T17:08:23.616Z,100.00
2023-04-14T17:10:50.763Z,100.00
2023-04-14T17:13:18.076Z,100.00
2023-04-14T17:15:44.898Z,100.00
2023-04-14T17:18:12.742Z,100.00
2023-04-14T17:20:41.180Z,100.00
2023-04-14T17:23:09.094Z,100.00
2023-04-14T17:25:39.213Z,100.00
2023-04-14T17:28:06.329Z,100.00
2023-04-14T17:30:35.174Z,100.00
2023-04-14T17:33:05.604Z,100.00
2023-04-14T17:35:33.335Z,100.00
2023-04-14T17:38:01.000Z,100.00
2023-04-14T17:40:28.475Z,100.00
2023-04-14T17:42:55.749Z,100.00
2023-04-14T17:45:25.773Z,100.00
2023-04-14T17:47:53.779Z,100.00
2023-04-14T17:50:25.703Z,100.00
2023-04-14T17:52:52.486Z,100.00
2023-04-14T17:55:19.382Z,100.00
2023-04-14T17:57:46.804Z,100.00
2023-04-14T18:00:14.872Z,100.00
2023-04-14T18:02:41.907Z,100.00
2023-04-14T18:05:09.427Z,100.00
2023-04-14T18:07:38.833Z,100.00
2023-04-14T18:10:06.670Z,100.00
2023-04-14T18:12:33.574Z,100.00
2023-04-14T18:15:00.458Z,100.00
2023-04-14T18:17:27.564Z,100.00
2023-04-14T18:19:56.701Z,100.00
2023-04-14T18:22:23.774Z,100.00
2023-04-14T18:24:51.074Z,100.00
2023-04-14T18:29:48.183Z,100.00
2023-04-14T18:32:15.563Z,100.00
2023-04-14T18:34:43.271Z,100.00
2023-04-14T18:37:10.517Z,100.00
2023-04-14T18:39:37.905Z,100.00
2023-04-14T18:42:05.529Z,100.00
2023-04-14T18:44:32.838Z,100.00
2023-04-14T18:46:59.719Z,100.00
2023-04-14T18:49:26.610Z,100.00
2023-04-14T18:51:53.864Z,100.00
2023-04-14T18:54:22.007Z,100.00
2023-04-14T18:56:49.392Z,100.00
2023-04-14T18:59:16.244Z,100.00
2023-04-14T19:01:43.124Z,100.00
2023-04-14T19:04:10.072Z,100.00
2023-04-14T19:06:37.272Z,100.00
2023-04-14T19:09:04.675Z,100.00
2023-04-14T19:11:36.215Z,100.00
2023-04-14T19:14:06.009Z,100.00
2023-04-14T19:16:33.188Z,100.00
2023-04-14T19:19:00.474Z,100.00
2023-04-14T19:21:27.440Z,100.00
2023-04-14T19:23:56.679Z,100.00
2023-04-14T19:26:24.393Z,100.00
2023-04-14T19:28:53.041Z,100.00
2023-04-14T19:31:21.593Z,100.00
2023-04-14T19:33:49.310Z,100.00
2023-04-14T19:36:17.674Z,100.00
2023-04-14T19:38:44.451Z,100.00
2023-04-14T19:41:11.731Z,100.00
2023-04-14T19:43:38.981Z,100.00
2023-04-14T19:46:07.308Z,100.00
2023-04-14T19:48:35.368Z,100.00
2023-04-14T19:51:02.289Z,99.88
2023-04-14T19:53:29.263Z,100.00
2023-04-14T19:55:57.353Z,99.98
2023-04-14T19:58:27.813Z,99.92
2023-04-14T20:00:57.373Z,99.85
2023-04-14T20:03:24.813Z,100.00
2023-04-14T20:05:56.914Z,99.64
2023-04-14T20:08:24.486Z,99.84
2023-04-14T20:10:52.807Z,99.91
2023-04-14T20:13:23.251Z,100.00
2023-04-14T20:15:51.042Z,99.86
2023-04-14T20:18:20.999Z,100.00
2023-04-14T20:20:48.792Z,100.00
2023-04-14T20:23:15.950Z,99.71
2023-04-14T20:25:45.784Z,99.80
2023-04-14T20:28:12.589Z,99.83
2023-04-14T20:30:40.387Z,99.53
2023-04-14T20:33:08.207Z,99.89
2023-04-14T20:35:36.106Z,99.99
2023-04-14T20:38:03.065Z,100.00
2023-04-14T20:40:30.310Z,100.00
2023-04-14T20:42:57.719Z,100.00
2023-04-14T20:45:25.060Z,100.00
2023-04-14T20:47:51.975Z,100.00
2023-04-14T20:50:18.990Z,100.00
2023-04-14T20:52:45.863Z,100.00
2023-04-14T20:55:13.596Z,100.00
2023-04-14T20:57:41.675Z,100.00
2023-04-14T21:00:12.401Z,100.00
2023-04-14T21:02:39.359Z,100.00
2023-04-14T21:05:06.592Z,100.00
2023-04-14T21:07:35.514Z,99.78
2023-04-14T21:10:04.226Z,99.58
2023-04-14T21:12:35.334Z,99.43
2023-04-14T21:15:48.600Z,99.55
2023-04-14T21:17:52.062Z,99.13
2023-04-14T21:20:19.010Z,99.09
2023-04-14T21:22:45.746Z,98.92
2023-04-14T21:25:12.500Z,99.09
2023-04-14T21:27:39.362Z,99.07
2023-04-14T21:30:06.791Z,98.87
2023-04-14T21:32:34.291Z,99.29
2023-04-14T21:35:01.311Z,98.90
2023-04-14T21:37:28.067Z,98.87
2023-04-14T21:39:55.512Z,98.73
2023-04-14T21:42:22.491Z,98.54
2023-04-14T21:44:49.383Z,98.40
2023-04-14T21:47:16.468Z,97.73
2023-04-14T21:49:43.302Z,97.67
2023-04-14T21:52:10.292Z,97.84
2023-04-14T21:54:41.549Z,97.42
2023-04-14T21:57:08.294Z,97.60
2023-04-14T21:59:35.067Z,97.29
2023-04-14T22:02:01.980Z,97.27
2023-04-14T22:04:36.285Z,97.47
2023-04-14T22:07:05.497Z,97.52
2023-04-14T22:09:33.505Z,97.53
2023-04-14T22:12:00.493Z,97.48
2023-04-14T22:14:27.872Z,97.57
2023-04-14T22:16:55.178Z,97.59
2023-04-14T22:19:21.993Z,97.27
2023-04-14T22:21:48.934Z,97.01
2023-04-14T22:24:15.687Z,96.55
2023-04-14T22:26:42.401Z,96.70
2023-04-14T22:29:11.596Z,96.28
2023-04-14T22:31:38.529Z,96.44
2023-04-14T22:34:05.394Z,96.40
2023-04-14T22:36:32.483Z,96.81
2023-04-14T22:38:59.369Z,96.77
2023-04-14T22:41:26.378Z,96.81
2023-04-14T22:43:53.226Z,96.38
2023-04-14T22:46:20.239Z,96.55
2023-04-14T22:48:47.210Z,96.65
2023-04-14T22:51:14.185Z,96.49
2023-04-14T22:53:41.344Z,96.30
2023-04-14T22:56:08.678Z,96.20
2023-04-14T22:58:39.408Z,96.18
2023-04-14T23:01:19.091Z,96.39
2023-04-14T23:03:50.161Z,96.25
2023-04-14T23:06:18.121Z,96.01
2023-04-14T23:08:44.914Z,96.17
2023-04-14T23:11:11.835Z,95.80
2023-04-14T23:13:38.572Z,95.96
2023-04-14T23:16:06.062Z,95.64
2023-04-14T23:18:33.119Z,95.59
2023-04-14T23:20:59.875Z,95.57
2023-04-14T23:23:27.542Z,95.45
2023-04-14T23:25:55.920Z,95.26
2023-04-14T23:28:22.867Z,95.35
2023-04-14T23:30:49.678Z,95.30
2023-04-14T23:33:16.506Z,94.93
2023-04-14T23:35:43.284Z,95.18
2023-04-14T23:38:10.088Z,94.62
2023-04-14T23:40:37.437Z,94.98
2023-04-14T23:43:05.278Z,94.83
2023-04-14T23:45:37.158Z,94.84
2023-04-14T23:48:05.436Z,94.70
2023-04-14T23:50:59.099Z,94.35
2023-04-14T23:53:20.140Z,94.43
2023-04-14T23:55:47.836Z,94.24
2023-04-14T23:58:26.002Z,94.29
